createdAt,value
2019-06-08T00:01:54.029Z,15.93
2019-06-08T00:04:22.906Z,15.87
2019-06-08T00:06:51.771Z,15.79
2019-06-08T00:09:20.940Z,15.83
2019-06-08T00:11:50.865Z,15.75
2019-06-08T00:14:19.600Z,15.75
2019-06-08T00:16:48.229Z,15.76
2019-06-08T00:19:17.381Z,15.73
2019-06-08T00:21:46.021Z,15.80
2019-06-08T00:24:15.729Z,15.76
2019-06-08T00:26:44.371Z,15.69
2019-06-08T00:29:14.109Z,15.61
2019-06-08T00:31:42.756Z,15.66
2019-06-08T00:34:11.298Z,15.64
2019-06-08T00:36:39.942Z,15.62
2019-06-08T00:39:09.199Z,15.65
2019-06-08T00:41:37.832Z,15.63
2019-06-08T00:44:06.649Z,15.61
2019-06-08T00:46:35.179Z,15.61
2019-06-08T00:49:03.909Z,15.59
2019-06-08T00:51:32.494Z,15.59
2019-06-08T00:54:01.122Z,15.61
2019-06-08T00:56:30.023Z,15.62
2019-06-08T00:58:58.828Z,15.57
2019-06-08T01:01:28.249Z,15.58
2019-06-08T01:03:57.005Z,15.62
2019-06-08T01:06:27.391Z,15.68
2019-06-08T01:08:56.295Z,15.69
2019-06-08T01:11:24.969Z,15.78
2019-06-08T01:13:53.540Z,15.77
2019-06-08T01:16:22.868Z,15.81
2019-06-08T01:18:51.638Z,15.86
2019-06-08T01:21:21.276Z,15.88
2019-06-08T01:23:49.942Z,15.87
2019-06-08T01:26:19.708Z,15.86
2019-06-08T01:28:48.684Z,15.82
2019-06-08T01:31:17.353Z,15.86
2019-06-08T01:33:45.886Z,15.85
2019-06-08T01:36:14.442Z,15.87
2019-06-08T01:38:43.076Z,15.94
2019-06-08T01:41:11.734Z,15.92
2019-06-08T01:43:40.292Z,15.93
2019-06-08T01:46:08.950Z,15.91
2019-06-08T01:48:37.686Z,15.91
2019-06-08T01:51:06.250Z,15.92
2019-06-08T01:53:34.877Z,15.88
2019-06-08T01:56:03.619Z,15.83
2019-06-08T01:58:33.418Z,15.89
2019-06-08T02:01:02.320Z,15.87
2019-06-08T02:03:30.852Z,15.84
2019-06-08T02:05:59.433Z,15.84
2019-06-08T02:08:28.611Z,15.81
2019-06-08T02:10:57.211Z,15.74
2019-06-08T02:13:26.870Z,15.78
2019-06-08T02:15:55.566Z,15.80
2019-06-08T02:18:37.713Z,15.75
2019-06-08T02:20:54.764Z,15.71
2019-06-08T02:23:23.283Z,15.63
2019-06-08T02:25:51.816Z,15.67
2019-06-08T02:28:20.539Z,15.56
2019-06-08T02:30:49.272Z,15.52
2019-06-08T02:33:17.886Z,15.51
2019-06-08T02:35:46.447Z,15.48
2019-06-08T02:38:15.180Z,15.54
2019-06-08T02:40:43.720Z,15.54
2019-06-08T02:43:12.674Z,15.54
2019-06-08T02:45:41.451Z,15.61
2019-06-08T02:48:10.077Z,15.60
2019-06-08T02:51:05.502Z,15.58
2019-06-08T02:53:36.148Z,15.55
2019-06-08T02:56:04.888Z,15.57
2019-06-08T02:58:35.766Z,15.50
2019-06-08T03:01:04.650Z,15.53
2019-06-08T03:03:35.723Z,15.47
2019-06-08T03:06:04.865Z,15.41
2019-06-08T03:08:36.292Z,15.36
2019-06-08T03:11:05.094Z,15.44
2019-06-08T03:13:35.620Z,15.36
2019-06-08T03:16:04.511Z,15.39
2019-06-08T03:18:33.684Z,15.39
2019-06-08T03:21:02.572Z,15.37
2019-06-08T03:23:31.944Z,15.39
2019-06-08T03:26:00.852Z,15.33
2019-06-08T03:28:29.462Z,15.23
2019-06-08T03:30:57.989Z,15.30
2019-06-08T03:33:26.718Z,15.30
2019-06-08T03:35:58.227Z,15.26
2019-06-08T03:38:25.749Z,15.29
2019-06-08T03:40:54.331Z,15.20
2019-06-08T03:43:22.852Z,15.12
2019-06-08T03:45:51.410Z,15.17
2019-06-08T03:48:20.053Z,15.13
2019-06-08T03:50:48.590Z,15.10
2019-06-08T03:53:17.231Z,15.06
2019-06-08T03:55:47.259Z,15.05
2019-06-08T03:58:15.896Z,14.99
2019-06-08T04:00:44.566Z,15.00
2019-06-08T04:03:13.122Z,14.92
2019-06-08T04:05:42.690Z,14.97
2019-06-08T04:08:12.304Z,14.95
2019-06-08T04:10:42.142Z,14.92
2019-06-08T04:13:11.877Z,14.89
2019-06-08T04:15:42.106Z,14.85
2019-06-08T04:18:11.014Z,14.87
2019-06-08T04:20:40.316Z,14.77
2019-06-08T04:23:09.468Z,14.76
2019-06-08T04:25:38.417Z,14.70
2019-06-08T04:28:07.473Z,14.63
2019-06-08T04:30:36.090Z,14.68
2019-06-08T04:33:04.622Z,14.72
2019-06-08T04:35:33.150Z,14.68
2019-06-08T04:38:01.784Z,14.69
2019-06-08T04:40:30.333Z,14.69
2019-06-08T04:42:58.911Z,14.68
2019-06-08T04:45:27.532Z,14.69
2019-06-08T04:47:56.189Z,14.67
2019-06-08T04:50:24.819Z,14.71
2019-06-08T04:52:53.354Z,14.65
2019-06-08T04:55:22.008Z,14.56
2019-06-08T04:57:50.952Z,14.64
2019-06-08T05:00:19.880Z,14.73
2019-06-08T05:02:50.843Z,14.66
2019-06-08T05:05:18.956Z,14.69
2019-06-08T05:07:48.484Z,14.70
2019-06-08T05:10:18.623Z,14.73
2019-06-08T05:12:47.718Z,14.64
2019-06-08T05:15:17.250Z,14.69
2019-06-08T05:17:47.382Z,14.64
2019-06-08T05:20:16.499Z,14.66
2019-06-08T05:22:45.541Z,14.64
2019-06-08T05:25:14.657Z,14.67
2019-06-08T05:27:43.394Z,14.58
2019-06-08T05:30:12.426Z,14.60
2019-06-08T05:32:41.475Z,14.64
2019-06-08T05:35:10.415Z,14.62
2019-06-08T05:37:39.450Z,14.71
2019-06-08T05:40:08.296Z,14.68
2019-06-08T05:42:36.858Z,14.59
2019-06-08T05:45:06.310Z,14.66
2019-06-08T05:47:35.198Z,14.55
2019-06-08T05:50:04.800Z,14.58
2019-06-08T05:52:33.465Z,14.52
2019-06-08T05:55:02.233Z,14.58
2019-06-08T05:57:30.810Z,14.56
2019-06-08T05:59:59.344Z,14.56
2019-06-08T06:02:27.904Z,14.63
2019-06-08T06:04:56.551Z,14.58
2019-06-08T06:07:25.089Z,14.51
2019-06-08T06:09:53.737Z,14.56
2019-06-08T06:12:22.274Z,14.56
2019-06-08T06:14:51.261Z,14.58
2019-06-08T06:17:20.131Z,14.61
2019-06-08T06:19:49.247Z,14.46
2019-06-08T06:22:17.927Z,14.46
2019-06-08T06:24:47.625Z,14.38
2019-06-08T06:27:16.348Z,14.44
2019-06-08T06:29:45.462Z,14.44
2019-06-08T06:32:14.129Z,14.45
2019-06-08T06:34:43.882Z,14.42
2019-06-08T06:37:12.811Z,14.30
2019-06-08T06:39:41.913Z,14.39
2019-06-08T06:42:10.596Z,14.44
2019-06-08T06:44:39.448Z,14.41
2019-06-08T06:47:08.229Z,14.33
2019-06-08T06:49:36.959Z,14.37
2019-06-08T06:52:05.503Z,14.36
2019-06-08T06:54:34.151Z,14.32
2019-06-08T06:57:02.910Z,14.30
2019-06-08T06:59:31.801Z,14.38
2019-06-08T07:02:00.459Z,14.41
2019-06-08T07:04:28.982Z,14.34
2019-06-08T07:06:57.615Z,14.53
2019-06-08T07:09:26.309Z,14.45
2019-06-08T07:11:56.651Z,14.64
2019-06-08T07:14:25.460Z,14.67
2019-06-08T07:16:54.292Z,14.85
2019-06-08T07:19:22.830Z,14.93
2019-06-08T07:21:53.065Z,14.87
2019-06-08T07:24:22.058Z,14.76
2019-06-08T07:26:50.583Z,14.88
2019-06-08T07:29:19.204Z,14.75
2019-06-08T07:31:48.612Z,14.72
2019-06-08T07:34:18.579Z,14.72
2019-06-08T07:36:48.440Z,14.61
2019-06-08T07:39:17.650Z,14.68
2019-06-08T07:41:47.419Z,14.67
2019-06-08T07:44:16.714Z,14.58
2019-06-08T07:46:45.348Z,14.57
2019-06-08T07:49:13.899Z,14.62
2019-06-08T07:51:57.791Z,14.64
2019-06-08T07:54:13.090Z,14.65
2019-06-08T07:56:41.715Z,14.70
2019-06-08T07:59:10.190Z,14.83
2019-06-08T08:01:38.818Z,14.71
2019-06-08T08:04:07.443Z,14.85
2019-06-08T08:06:36.010Z,14.81
2019-06-08T08:09:05.916Z,15.02
2019-06-08T08:11:34.611Z,15.00
2019-06-08T08:14:03.430Z,15.19
2019-06-08T08:16:32.192Z,15.43
2019-06-08T08:19:00.831Z,15.39
2019-06-08T08:21:29.684Z,15.49
2019-06-08T08:24:01.370Z,15.70
2019-06-08T08:26:31.279Z,15.54
2019-06-08T08:29:02.762Z,15.76
2019-06-08T08:31:29.971Z,15.56
2019-06-08T08:34:05.336Z,15.27
2019-06-08T08:36:32.512Z,15.21
2019-06-08T08:39:02.365Z,15.40
2019-06-08T08:41:30.201Z,15.50
2019-06-08T08:44:04.187Z,15.42
2019-06-08T08:46:29.257Z,15.33
2019-06-08T08:49:05.930Z,15.42
2019-06-08T08:51:28.253Z,15.37
2019-06-08T08:54:02.020Z,15.42
2019-06-08T08:56:27.956Z,15.47
2019-06-08T08:58:59.257Z,15.43
2019-06-08T09:01:28.913Z,15.42
2019-06-08T09:04:01.647Z,15.68
2019-06-08T09:06:28.351Z,15.81
2019-06-08T09:09:00.826Z,15.71
2019-06-08T09:11:28.912Z,15.76
2019-06-08T09:14:01.408Z,15.81
2019-06-08T09:16:28.805Z,16.07
2019-06-08T09:19:01.197Z,16.13
2019-06-08T09:21:28.295Z,16.00
2019-06-08T09:24:00.713Z,15.96
2019-06-08T09:26:31.065Z,16.10
2019-06-08T09:28:58.479Z,15.98
2019-06-08T09:31:28.058Z,15.73
2019-06-08T09:34:07.483Z,15.92
2019-06-08T09:36:28.804Z,16.05
2019-06-08T09:39:00.941Z,16.27
2019-06-08T09:41:31.266Z,16.42
2019-06-08T09:44:02.152Z,16.44
2019-06-08T09:46:29.333Z,16.47
2019-06-08T09:49:03.680Z,16.37
2019-06-08T09:51:28.670Z,16.36
2019-06-08T09:54:00.840Z,16.20
2019-06-08T09:56:28.376Z,16.30
2019-06-08T09:59:01.289Z,16.64
2019-06-08T10:01:28.668Z,16.85
2019-06-08T10:04:00.830Z,16.73
2019-06-08T10:06:27.971Z,16.74
2019-06-08T10:08:56.504Z,16.72
2019-06-08T10:11:27.910Z,16.58
2019-06-08T10:13:59.388Z,16.55
2019-06-08T10:16:27.959Z,16.45
2019-06-08T10:18:59.961Z,16.43
2019-06-08T10:21:28.408Z,16.59
2019-06-08T10:24:00.578Z,16.61
2019-06-08T10:26:28.140Z,16.71
2019-06-08T10:29:00.286Z,16.86
2019-06-08T10:31:36.506Z,16.62
2019-06-08T10:34:00.544Z,16.45
2019-06-08T10:36:28.637Z,16.42
2019-06-08T10:39:01.783Z,16.31
2019-06-08T10:41:27.985Z,16.38
2019-06-08T10:43:57.170Z,16.42
2019-06-08T10:46:25.890Z,16.57
2019-06-08T10:48:54.580Z,16.54
2019-06-08T10:51:23.203Z,16.53
2019-06-08T10:53:53.065Z,16.44
2019-06-08T10:56:22.300Z,16.42
2019-06-08T10:58:50.834Z,16.34
2019-06-08T11:01:19.362Z,16.39
2019-06-08T11:03:48.864Z,16.59
2019-06-08T11:06:18.806Z,16.91
2019-06-08T11:08:47.650Z,17.25
2019-06-08T11:11:19.471Z,17.15
2019-06-08T11:13:50.168Z,17.23
2019-06-08T11:16:18.149Z,16.93
2019-06-08T11:18:50.826Z,17.15
2019-06-08T11:21:18.790Z,17.38
2019-06-08T11:24:04.710Z,17.45
2019-06-08T11:26:23.895Z,17.42
2019-06-08T11:28:51.245Z,17.38
2019-06-08T11:31:19.870Z,17.00
2019-06-08T11:33:49.108Z,17.10
2019-06-08T11:36:18.904Z,17.45
2019-06-08T11:38:48.059Z,17.92
2019-06-08T11:41:19.040Z,18.12
2019-06-08T11:43:47.237Z,17.75
2019-06-08T11:46:19.014Z,17.92
2019-06-08T11:48:48.363Z,18.05
2019-06-08T11:51:16.745Z,17.80
2019-06-08T11:53:48.208Z,17.38
2019-06-08T11:56:18.119Z,17.25
2019-06-08T11:58:48.584Z,17.16
2019-06-08T12:01:18.565Z,17.45
2019-06-08T12:03:48.345Z,17.46
2019-06-08T12:06:18.559Z,17.27
2019-06-08T12:08:47.386Z,17.31
2019-06-08T12:11:19.800Z,17.23
2019-06-08T12:13:47.380Z,17.41
2019-06-08T12:16:21.639Z,17.33
2019-06-08T12:18:49.269Z,17.51
2019-06-08T12:21:18.550Z,17.75
2019-06-08T12:23:47.343Z,17.95
2019-06-08T12:26:15.991Z,18.00
2019-06-08T12:28:44.632Z,17.97
2019-06-08T12:31:17.101Z,18.06
2019-06-08T12:33:43.582Z,18.17
2019-06-08T12:36:15.204Z,18.43
2019-06-08T12:38:42.855Z,18.27
2019-06-08T12:41:12.741Z,18.38
2019-06-08T12:43:41.840Z,18.53
2019-06-08T12:46:12.546Z,18.77
2019-06-08T12:48:40.902Z,18.92
2019-06-08T12:51:11.403Z,18.26
2019-06-08T12:53:40.096Z,18.27
2019-06-08T12:56:10.621Z,18.19
2019-06-08T12:58:39.411Z,18.39
2019-06-08T13:01:09.484Z,18.65
2019-06-08T13:03:38.579Z,18.62
2019-06-08T13:06:09.253Z,18.71
2019-06-08T13:08:38.051Z,18.88
2019-06-08T13:11:09.043Z,18.54
2019-06-08T13:13:40.654Z,18.63
2019-06-08T13:16:10.478Z,18.58
2019-06-08T13:18:40.842Z,19.25
2019-06-08T13:21:22.145Z,19.61
2019-06-08T13:23:41.294Z,19.56
2019-06-08T13:26:11.490Z,20.12
2019-06-08T13:28:40.966Z,21.55
2019-06-08T13:31:11.687Z,21.29
2019-06-08T13:33:40.013Z,20.98
2019-06-08T13:36:08.655Z,20.46
2019-06-08T13:38:38.046Z,21.02
2019-06-08T13:41:08.737Z,21.02
2019-06-08T13:43:40.378Z,21.14
2019-06-08T13:46:08.236Z,21.32
2019-06-08T13:48:37.598Z,21.90
2019-06-08T13:51:08.424Z,21.90
2019-06-08T13:53:38.373Z,20.72
2019-06-08T13:56:07.915Z,20.64
2019-06-08T13:58:38.227Z,22.47
2019-06-08T14:01:10.005Z,22.05
2019-06-08T14:03:38.151Z,22.02
2019-06-08T14:06:07.666Z,22.01
2019-06-08T14:08:38.450Z,21.69
2019-06-08T14:11:08.261Z,21.47
2019-06-08T14:13:38.089Z,21.07
2019-06-08T14:16:08.866Z,21.07
2019-06-08T14:18:38.611Z,21.27
2019-06-08T14:21:07.330Z,21.61
2019-06-08T14:23:38.701Z,21.58
2019-06-08T14:26:08.292Z,21.80
2019-06-08T14:28:38.064Z,20.44
2019-06-08T14:31:08.291Z,21.51
2019-06-08T14:33:38.140Z,20.37
2019-06-08T14:36:07.980Z,20.37
2019-06-08T14:38:41.060Z,19.78
2019-06-08T14:41:07.720Z,19.59
2019-06-08T14:43:38.196Z,19.52
2019-06-08T14:46:08.071Z,19.40
2019-06-08T14:48:37.924Z,20.77
2019-06-08T14:51:08.766Z,21.00
2019-06-08T14:53:38.698Z,20.32
2019-06-08T14:56:08.880Z,19.87
2019-06-08T14:58:38.630Z,20.08
2019-06-08T15:01:07.996Z,19.85
2019-06-08T15:03:38.076Z,20.46
2019-06-08T15:06:08.153Z,20.76
2019-06-08T15:08:37.033Z,20.55
2019-06-08T15:11:07.919Z,20.49
2019-06-08T15:13:37.358Z,20.70
2019-06-08T15:16:08.243Z,20.35
2019-06-08T15:18:38.578Z,20.22
2019-06-08T15:21:07.942Z,20.45
2019-06-08T15:23:36.649Z,20.34
2019-06-08T15:26:19.780Z,19.83
2019-06-08T15:28:36.450Z,19.26
2019-06-08T15:31:08.159Z,19.38
2019-06-08T15:33:38.199Z,18.98
2019-06-08T15:36:08.341Z,18.97
2019-06-08T15:38:38.056Z,18.67
2019-06-08T15:41:07.826Z,17.46
2019-06-08T15:43:39.967Z,16.26
2019-06-08T15:46:08.504Z,15.98
2019-06-08T15:48:38.179Z,16.13
2019-06-08T15:51:07.887Z,16.44
2019-06-08T15:53:37.811Z,16.41
2019-06-08T15:56:08.384Z,16.42
2019-06-08T15:58:40.153Z,16.28
2019-06-08T16:01:07.977Z,16.42
2019-06-08T16:03:36.602Z,16.43
2019-06-08T16:06:05.347Z,16.17
2019-06-08T16:08:37.529Z,16.04
2019-06-08T16:11:04.485Z,15.30
2019-06-08T16:13:33.094Z,14.49
2019-06-08T16:16:01.684Z,14.37
2019-06-08T16:18:31.644Z,14.64
2019-06-08T16:21:00.281Z,14.83
2019-06-08T16:23:29.930Z,14.65
2019-06-08T16:25:58.585Z,14.58
2019-06-08T16:28:27.751Z,14.38
2019-06-08T16:30:56.342Z,14.27
2019-06-08T16:33:24.964Z,14.39
2019-06-08T16:35:53.488Z,14.75
2019-06-08T16:38:22.304Z,14.77
2019-06-08T16:40:50.914Z,14.87
2019-06-08T16:43:19.438Z,14.87
2019-06-08T16:45:47.987Z,14.73
2019-06-08T16:48:16.502Z,14.85
2019-06-08T16:50:45.025Z,15.08
2019-06-08T16:53:13.668Z,15.03
2019-06-08T16:55:42.295Z,14.89
2019-06-08T16:58:10.918Z,14.92
2019-06-08T17:00:42.061Z,14.85
2019-06-08T17:03:10.125Z,15.06
2019-06-08T17:05:38.952Z,15.38
2019-06-08T17:08:07.592Z,15.58
2019-06-08T17:10:36.915Z,15.69
2019-06-08T17:13:05.553Z,15.84
2019-06-08T17:15:34.313Z,15.76
2019-06-08T17:18:03.066Z,15.73
2019-06-08T17:20:32.060Z,15.83
2019-06-08T17:23:00.639Z,16.01
2019-06-08T17:25:30.273Z,15.78
2019-06-08T17:27:59.186Z,15.76
2019-06-08T17:30:27.726Z,15.59
2019-06-08T17:32:56.240Z,15.73
2019-06-08T17:35:24.976Z,15.74
2019-06-08T17:37:53.514Z,15.70
2019-06-08T17:40:22.158Z,15.75
2019-06-08T17:42:50.767Z,15.40
2019-06-08T17:45:19.517Z,15.14
2019-06-08T17:47:48.024Z,15.05
2019-06-08T17:50:17.530Z,15.05
2019-06-08T17:52:46.074Z,15.09
2019-06-08T17:55:14.793Z,15.08
2019-06-08T17:57:53.005Z,14.97
2019-06-08T18:00:14.937Z,15.05
2019-06-08T18:02:45.363Z,15.08
2019-06-08T18:05:14.179Z,15.27
2019-06-08T18:07:44.321Z,15.30
2019-06-08T18:10:13.552Z,15.13
2019-06-08T18:12:44.323Z,15.04
2019-06-08T18:15:13.427Z,15.09
2019-06-08T18:17:43.733Z,15.08
2019-06-08T18:20:13.427Z,15.02
2019-06-08T18:22:44.355Z,14.99
2019-06-08T18:25:14.169Z,14.93
2019-06-08T18:28:00.840Z,15.01
2019-06-08T18:30:15.571Z,15.00
2019-06-08T18:32:48.374Z,15.08
2019-06-08T18:35:18.262Z,15.06
2019-06-08T18:37:49.890Z,15.01
2019-06-08T18:40:18.835Z,14.97
2019-06-08T18:42:48.752Z,14.95
2019-06-08T18:45:18.278Z,14.93
2019-06-08T18:47:48.347Z,14.80
2019-06-08T18:50:17.520Z,14.91
2019-06-08T18:52:49.432Z,14.87
2019-06-08T18:55:18.230Z,14.77
2019-06-08T18:57:48.960Z,14.88
2019-06-08T19:00:22.165Z,14.86
2019-06-08T19:02:54.489Z,14.85
2019-06-08T19:05:21.547Z,14.85
2019-06-08T19:07:52.076Z,14.79
2019-06-08T19:10:31.470Z,14.71
2019-06-08T19:13:00.209Z,14.75
2019-06-08T19:15:33.341Z,14.78
2019-06-08T19:18:02.065Z,14.75
2019-06-08T19:20:30.709Z,14.83
2019-06-08T19:22:59.783Z,14.78
2019-06-08T19:25:28.290Z,14.78
2019-06-08T19:27:57.930Z,14.77
2019-06-08T19:30:28.186Z,14.80
2019-06-08T19:32:57.861Z,14.91
2019-06-08T19:35:27.386Z,14.92
2019-06-08T19:37:58.129Z,14.93
2019-06-08T19:40:27.188Z,14.86
2019-06-08T19:43:00.057Z,14.89
2019-06-08T19:45:27.666Z,14.97
2019-06-08T19:47:57.716Z,14.88
2019-06-08T19:50:28.641Z,14.91
2019-06-08T19:52:57.994Z,14.88
2019-06-08T19:55:26.800Z,14.88
2019-06-08T19:57:57.017Z,14.89
2019-06-08T20:00:27.920Z,14.85
2019-06-08T20:02:58.229Z,14.79
2019-06-08T20:05:28.548Z,14.85
2019-06-08T20:07:57.663Z,14.79
2019-06-08T20:10:28.056Z,14.80
2019-06-08T20:12:57.594Z,14.85
2019-06-08T20:15:26.470Z,14.83
2019-06-08T20:17:57.278Z,14.75
2019-06-08T20:20:27.715Z,14.77
2019-06-08T20:22:58.357Z,14.73
2019-06-08T20:25:27.896Z,14.69
2019-06-08T20:27:58.668Z,14.67
2019-06-08T20:30:28.170Z,14.73
2019-06-08T20:32:57.648Z,14.71
2019-06-08T20:35:28.058Z,14.60
2019-06-08T20:37:57.807Z,14.67
2019-06-08T20:40:27.980Z,14.65
2019-06-08T20:42:57.778Z,14.69
2019-06-08T20:45:28.116Z,14.60
2019-06-08T20:47:58.513Z,14.63
2019-06-08T20:50:27.248Z,14.61
2019-06-08T20:52:57.638Z,14.52
2019-06-08T20:55:28.337Z,14.43
2019-06-08T20:57:57.552Z,14.37
2019-06-08T21:00:26.253Z,14.35
2019-06-08T21:02:57.941Z,14.34
2019-06-08T21:05:27.571Z,14.32
2019-06-08T21:07:56.394Z,14.24
2019-06-08T21:10:28.129Z,14.33
2019-06-08T21:12:58.776Z,14.26
2019-06-08T21:15:27.553Z,14.25
2019-06-08T21:17:56.187Z,14.22
2019-06-08T21:20:25.228Z,14.26
2019-06-08T21:22:55.032Z,14.26
2019-06-08T21:25:24.202Z,14.21
2019-06-08T21:27:54.069Z,14.20
2019-06-08T21:30:24.678Z,14.12
2019-06-08T21:32:56.091Z,14.01
2019-06-08T21:35:23.962Z,13.96
2019-06-08T21:37:53.385Z,14.00
2019-06-08T21:40:22.927Z,13.97
2019-06-08T21:42:53.541Z,13.92
2019-06-08T21:45:21.920Z,13.87
2019-06-08T21:47:51.730Z,13.87
2019-06-08T21:50:21.050Z,13.83
2019-06-08T21:52:51.577Z,13.65
2019-06-08T21:55:20.107Z,13.70
2019-06-08T21:57:51.128Z,13.62
2019-06-08T22:00:38.121Z,13.67
2019-06-08T22:02:51.754Z,13.66
2019-06-08T22:05:20.687Z,13.67
2019-06-08T22:07:50.082Z,13.66
2019-06-08T22:10:18.869Z,13.64
2019-06-08T22:12:48.334Z,13.60
2019-06-08T22:15:18.243Z,13.48
2019-06-08T22:17:47.596Z,13.45
2019-06-08T22:20:18.690Z,13.46
2019-06-08T22:22:47.431Z,13.49
2019-06-08T22:25:17.579Z,13.42
2019-06-08T22:27:46.371Z,13.43
2019-06-08T22:30:32.336Z,13.38
2019-06-08T22:32:47.388Z,13.32
2019-06-08T22:35:16.178Z,13.30
2019-06-08T22:37:44.812Z,13.21
2019-06-08T22:40:13.572Z,13.17
2019-06-08T22:42:42.234Z,13.18
2019-06-08T22:45:11.186Z,13.03
2019-06-08T22:47:39.731Z,13.14
2019-06-08T22:50:08.749Z,13.21
2019-06-08T22:52:38.178Z,13.15
2019-06-08T22:55:10.476Z,13.19
2019-06-08T22:57:37.891Z,13.12
2019-06-08T23:00:14.255Z,13.11
2019-06-08T23:02:38.526Z,13.01
2019-06-08T23:05:09.884Z,12.85
2019-06-08T23:07:39.375Z,12.87
2019-06-08T23:10:09.102Z,12.88
2019-06-08T23:12:38.261Z,12.81
2019-06-08T23:15:07.900Z,12.80
2019-06-08T23:17:38.597Z,12.75
2019-06-08T23:20:08.744Z,12.84
2019-06-08T23:22:38.468Z,12.80
2019-06-08T23:25:09.312Z,12.73
2019-06-08T23:27:38.392Z,12.75
2019-06-08T23:30:10.299Z,12.59
2019-06-08T23:32:38.730Z,12.51
2019-06-08T23:35:09.580Z,12.59
2019-06-08T23:37:38.370Z,12.40
2019-06-08T23:40:07.670Z,12.48
2019-06-08T23:42:38.420Z,12.57
2019-06-08T23:45:10.324Z,12.75
2019-06-08T23:47:38.689Z,12.71
2019-06-08T23:50:09.982Z,12.69
2019-06-08T23:52:38.420Z,12.67
2019-06-08T23:55:10.569Z,12.72
2019-06-08T23:57:38.149Z,12.68
